X  Sluiten METAR luchtvaart weer gegevens      EHKD De Kooy Airport
Temperatuur
16°C Temperatuur
11°C Dauwpunt
72% Vochtigheid



Wind
15 MPH
24 KM/U
7 M/S
13 KTS



220°
ZW
Huidig weer

Veel verspreide wolken Veel verspreide wolken
Luchtdruk 1015.92 (hPa) - 30 (inHg)
Zicht 6 (mijl) - 9.7 (km)
Vliegveld
Vliegveld code EHKD

Locatie : De Kooy Airport
Afstand: 34 (mi)

Metar:
EHKD 281014Z AUTO 22013KT 180V260 9999 SCT016 16/11 Q1016 WHT NOSIG

Tijd: 28-05-2024 12:14 CEST